createdAt,value
2018-08-06T00:00:23.234Z,1.70
2018-08-06T00:02:51.474Z,1.70
2018-08-06T00:05:19.826Z,1.73
2018-08-06T00:07:48.141Z,1.63
2018-08-06T00:10:18.945Z,1.87
2018-08-06T00:12:47.578Z,1.80
2018-08-06T00:15:16.228Z,2.10
2018-08-06T00:17:44.498Z,1.60
2018-08-06T00:20:13.611Z,1.47
2018-08-06T00:22:42.222Z,1.60
2018-08-06T00:25:11.728Z,2.00
2018-08-06T00:27:40.314Z,1.90
2018-08-06T00:30:10.074Z,1.57
2018-08-06T00:32:39.270Z,1.70
2018-08-06T00:35:07.866Z,1.90
2018-08-06T00:37:36.158Z,2.13
2018-08-06T00:40:05.155Z,1.90
2018-08-06T00:42:33.380Z,2.00
2018-08-06T00:45:01.635Z,1.60
2018-08-06T00:47:29.979Z,1.90
2018-08-06T00:49:58.191Z,2.10
2018-08-06T00:52:26.466Z,2.00
2018-08-06T00:54:54.675Z,2.20
2018-08-06T00:57:22.898Z,2.10
2018-08-06T00:59:51.121Z,2.10
2018-08-06T01:02:19.334Z,2.40
2018-08-06T01:04:47.869Z,2.20
2018-08-06T01:07:16.135Z,2.30
2018-08-06T01:09:44.371Z,2.17
2018-08-06T01:12:12.618Z,2.67
2018-08-06T01:14:40.847Z,2.40
2018-08-06T01:17:09.169Z,3.00
2018-08-06T01:19:37.394Z,2.20
2018-08-06T01:22:05.660Z,2.83
2018-08-06T01:24:33.955Z,2.13
2018-08-06T01:27:02.189Z,2.00
2018-08-06T01:29:32.108Z,2.27
2018-08-06T01:32:00.116Z,2.50
2018-08-06T01:34:28.188Z,2.40
2018-08-06T01:36:56.155Z,2.57
2018-08-06T01:39:24.192Z,2.53
2018-08-06T01:41:52.160Z,2.63
2018-08-06T01:44:20.140Z,2.50
2018-08-06T01:46:48.095Z,2.50
2018-08-06T01:49:16.621Z,2.70
2018-08-06T01:51:44.587Z,2.60
2018-08-06T01:54:12.552Z,2.57
2018-08-06T01:56:40.765Z,2.50
2018-08-06T01:59:09.007Z,2.70
2018-08-06T02:01:37.227Z,2.60
2018-08-06T02:04:05.440Z,2.60
2018-08-06T02:06:33.707Z,2.77
2018-08-06T02:09:02.516Z,2.57
2018-08-06T02:11:30.780Z,2.80
2018-08-06T02:13:59.076Z,2.60
2018-08-06T02:16:27.280Z,2.40
2018-08-06T02:18:55.572Z,2.30
2018-08-06T02:21:23.784Z,2.50
2018-08-06T02:23:51.980Z,2.57
2018-08-06T02:26:20.194Z,2.40
2018-08-06T02:28:48.512Z,2.93
2018-08-06T02:31:16.688Z,2.53
2018-08-06T02:33:44.921Z,2.63
2018-08-06T02:36:13.129Z,2.70
2018-08-06T02:38:41.306Z,2.77
2018-08-06T02:41:09.517Z,2.60
2018-08-06T02:43:37.737Z,2.47
2018-08-06T02:46:06.508Z,2.37
2018-08-06T02:48:34.716Z,2.87
2018-08-06T02:51:02.935Z,2.73
2018-08-06T02:53:31.276Z,3.30
2018-08-06T02:55:59.540Z,3.00
2018-08-06T02:58:27.748Z,3.17
2018-08-06T03:00:55.989Z,2.57
2018-08-06T03:03:24.164Z,2.87
2018-08-06T03:05:52.746Z,3.10
2018-08-06T03:08:20.990Z,2.80
2018-08-06T03:10:49.209Z,2.90
2018-08-06T03:13:17.457Z,3.20
2018-08-06T03:15:45.753Z,3.00
2018-08-06T03:18:13.948Z,3.17
2018-08-06T03:20:42.221Z,2.67
2018-08-06T03:23:10.441Z,3.00
2018-08-06T03:25:38.436Z,2.60
2018-08-06T03:28:06.697Z,3.37
2018-08-06T03:30:34.921Z,2.50
2018-08-06T03:33:03.118Z,2.90
2018-08-06T03:35:31.450Z,3.23
2018-08-06T03:37:59.649Z,3.80
2018-08-06T03:40:27.921Z,3.20
2018-08-06T03:42:56.157Z,3.17
2018-08-06T03:45:24.404Z,3.00
2018-08-06T03:47:52.645Z,3.37
2018-08-06T03:50:20.964Z,2.80
2018-08-06T03:52:49.449Z,3.13
2018-08-06T03:55:17.629Z,3.53
2018-08-06T03:57:45.893Z,3.23
2018-08-06T04:00:14.901Z,3.30
2018-08-06T04:02:43.673Z,3.10
2018-08-06T04:05:12.901Z,3.27
2018-08-06T04:07:41.118Z,3.00
2018-08-06T04:10:11.849Z,2.90
2018-08-06T04:12:40.525Z,3.20
2018-08-06T04:15:09.636Z,3.13
2018-08-06T04:17:37.913Z,3.97
2018-08-06T04:20:06.534Z,4.00
2018-08-06T04:22:34.825Z,3.40
2018-08-06T04:25:03.119Z,3.90
2018-08-06T04:27:31.454Z,3.40
2018-08-06T04:29:59.536Z,3.53
2018-08-06T04:32:27.737Z,3.43
2018-08-06T04:34:55.987Z,3.10
2018-08-06T04:37:24.225Z,3.23
2018-08-06T04:39:52.706Z,3.10
2018-08-06T04:42:20.986Z,3.13
2018-08-06T04:44:49.490Z,3.10
2018-08-06T04:47:17.841Z,3.37
2018-08-06T04:49:46.110Z,3.80
2018-08-06T04:52:14.410Z,3.57
2018-08-06T04:54:42.627Z,3.40
2018-08-06T04:57:10.914Z,3.40
2018-08-06T04:59:39.163Z,4.20
2018-08-06T05:02:07.405Z,3.23
2018-08-06T05:04:35.630Z,3.83
2018-08-06T05:07:03.980Z,3.90
2018-08-06T05:09:40.682Z,3.47
2018-08-06T05:12:09.158Z,3.83
2018-08-06T05:14:38.296Z,3.77
2018-08-06T05:17:07.038Z,3.70
2018-08-06T05:19:35.765Z,3.80
2018-08-06T05:22:04.117Z,3.83
2018-08-06T05:24:32.347Z,3.90
2018-08-06T05:27:00.558Z,3.55
2018-08-06T05:29:28.755Z,3.93
2018-08-06T05:31:56.962Z,3.90
2018-08-06T05:34:25.258Z,3.73
2018-08-06T05:36:53.551Z,3.60
2018-08-06T05:39:21.786Z,3.90
2018-08-06T05:41:50.158Z,3.30
2018-08-06T05:44:18.436Z,3.60
2018-08-06T05:46:46.666Z,3.70
2018-08-06T05:49:14.875Z,3.70
2018-08-06T05:51:43.075Z,3.57
2018-08-06T05:54:11.339Z,3.67
2018-08-06T05:56:39.536Z,3.60
2018-08-06T05:59:07.744Z,3.92
2018-08-06T06:01:35.970Z,3.80
2018-08-06T06:04:04.287Z,3.60
2018-08-06T06:06:32.631Z,3.67
2018-08-06T06:09:00.873Z,3.40
2018-08-06T06:11:29.191Z,3.37
2018-08-06T06:13:57.447Z,3.50
2018-08-06T06:16:26.739Z,4.07
2018-08-06T06:18:54.999Z,3.50
2018-08-06T06:21:23.230Z,3.87
2018-08-06T06:23:51.560Z,3.60
2018-08-06T06:26:19.771Z,3.60
2018-08-06T06:28:48.053Z,3.57
2018-08-06T06:31:16.528Z,3.20
2018-08-06T06:33:44.768Z,2.97
2018-08-06T06:36:13.020Z,2.87
2018-08-06T06:38:40.987Z,3.00
2018-08-06T06:41:09.256Z,3.00
2018-08-06T06:43:37.638Z,3.00
2018-08-06T06:46:05.948Z,3.00
2018-08-06T06:48:34.520Z,3.27
2018-08-06T06:51:03.331Z,2.80
2018-08-06T06:53:31.556Z,2.57
2018-08-06T06:55:59.803Z,2.80
2018-08-06T06:58:27.996Z,3.77
2018-08-06T07:00:56.268Z,2.27
2018-08-06T07:03:24.485Z,2.43
2018-08-06T07:05:52.510Z,2.30
2018-08-06T07:08:20.775Z,2.10
2018-08-06T07:10:49.116Z,2.20
2018-08-06T07:13:17.336Z,2.10
2018-08-06T07:15:45.564Z,2.30
2018-08-06T07:18:13.797Z,2.00
2018-08-06T07:20:42.057Z,2.30
2018-08-06T07:23:10.316Z,2.40
2018-08-06T07:25:38.608Z,1.80
2018-08-06T07:28:06.856Z,1.80
2018-08-06T07:30:35.116Z,2.43
2018-08-06T07:33:03.413Z,1.77
2018-08-06T07:35:31.644Z,2.20
2018-08-06T07:37:59.945Z,2.00
2018-08-06T07:40:28.153Z,1.70
2018-08-06T07:42:56.394Z,1.73
2018-08-06T07:45:24.632Z,1.93
2018-08-06T07:47:52.840Z,1.77
2018-08-06T07:50:24.212Z,2.60
2018-08-06T07:52:52.440Z,2.00
2018-08-06T07:55:20.645Z,3.07
2018-08-06T07:57:48.869Z,1.83
2018-08-06T08:00:19.424Z,2.07
2018-08-06T08:02:47.677Z,1.80
2018-08-06T08:05:17.161Z,1.50
2018-08-06T08:07:46.461Z,1.97
2018-08-06T08:10:17.889Z,1.60
2018-08-06T08:12:46.736Z,1.70
2018-08-06T08:15:17.781Z,1.70
2018-08-06T08:17:46.721Z,1.80
2018-08-06T08:20:16.069Z,1.87
2018-08-06T08:22:44.463Z,1.73
2018-08-06T08:25:14.933Z,1.50
2018-08-06T08:27:43.293Z,1.67
2018-08-06T08:30:12.969Z,1.20
2018-08-06T08:32:41.336Z,2.00
2018-08-06T08:35:10.267Z,1.50
2018-08-06T08:37:38.568Z,1.60
2018-08-06T08:40:09.205Z,1.40
2018-08-06T08:42:37.641Z,1.30
2018-08-06T08:45:09.046Z,1.60
2018-08-06T08:47:37.518Z,1.50
2018-08-06T08:50:07.281Z,1.70
2018-08-06T08:52:35.623Z,2.03
2018-08-06T08:55:04.102Z,1.67
2018-08-06T08:57:32.418Z,1.40
2018-08-06T09:00:00.807Z,1.73
2018-08-06T09:02:29.002Z,1.77
2018-08-06T09:04:57.238Z,1.67
2018-08-06T09:07:25.581Z,1.77
2018-08-06T09:09:53.935Z,1.70
2018-08-06T09:12:22.202Z,1.57
2018-08-06T09:14:50.451Z,1.77
2018-08-06T09:17:18.650Z,1.50
2018-08-06T09:19:46.918Z,1.60
2018-08-06T09:22:15.194Z,1.27
2018-08-06T09:24:43.446Z,1.90
2018-08-06T09:27:11.963Z,1.47
2018-08-06T09:29:40.218Z,1.50
2018-08-06T09:32:08.514Z,1.30
2018-08-06T09:34:36.839Z,1.62
2018-08-06T09:37:05.198Z,1.63
2018-08-06T09:39:33.447Z,1.42
2018-08-06T09:42:03.194Z,2.10
2018-08-06T09:44:31.193Z,1.35
2018-08-06T09:46:59.139Z,1.50
2018-08-06T09:49:27.714Z,1.40
2018-08-06T09:51:55.678Z,1.60
2018-08-06T09:54:23.654Z,1.65
2018-08-06T09:56:51.619Z,1.20
2018-08-06T09:59:19.643Z,1.55
2018-08-06T10:01:53.022Z,1.40
2018-08-06T10:04:21.279Z,1.60
2018-08-06T10:06:49.638Z,1.98
2018-08-06T10:09:17.794Z,1.60
2018-08-06T10:11:46.023Z,1.40
2018-08-06T10:14:14.263Z,1.52
2018-08-06T10:16:42.532Z,1.82
2018-08-06T10:19:10.883Z,1.70
2018-08-06T10:21:39.059Z,1.77
2018-08-06T10:24:07.279Z,2.00
2018-08-06T10:26:35.527Z,1.70
2018-08-06T10:29:03.800Z,1.40
2018-08-06T10:31:31.999Z,2.00
2018-08-06T10:34:00.211Z,1.82
2018-08-06T10:36:28.440Z,1.67
2018-08-06T10:38:56.676Z,1.65
2018-08-06T10:41:24.883Z,1.95
2018-08-06T10:43:53.083Z,1.67
2018-08-06T10:46:21.293Z,1.57
2018-08-06T10:48:49.576Z,1.72
2018-08-06T10:51:17.516Z,1.75
2018-08-06T10:53:45.721Z,1.72
2018-08-06T10:56:13.964Z,1.67
2018-08-06T10:58:42.169Z,1.85
2018-08-06T11:01:10.364Z,1.82
2018-08-06T11:03:38.608Z,2.00
2018-08-06T11:06:06.844Z,1.70
2018-08-06T11:08:35.080Z,1.70
2018-08-06T11:11:03.316Z,1.90
2018-08-06T11:13:31.536Z,1.75
2018-08-06T11:15:59.760Z,2.20
2018-08-06T11:18:27.977Z,1.70
2018-08-06T11:20:56.192Z,1.90
2018-08-06T11:23:24.400Z,1.87
2018-08-06T11:25:52.812Z,2.42
2018-08-06T11:28:21.103Z,1.70
2018-08-06T11:30:49.309Z,1.98
2018-08-06T11:33:17.648Z,1.80
2018-08-06T11:35:45.886Z,1.82
2018-08-06T11:38:14.112Z,1.65
2018-08-06T11:40:42.333Z,1.87
2018-08-06T11:43:10.557Z,1.87
2018-08-06T11:45:38.788Z,1.80
2018-08-06T11:48:06.992Z,1.80
2018-08-06T11:50:35.338Z,1.52
2018-08-06T11:53:03.568Z,2.20
2018-08-06T11:55:31.977Z,1.62
2018-08-06T11:58:00.189Z,2.08
2018-08-06T12:00:28.609Z,2.30
2018-08-06T12:02:56.905Z,2.00
2018-08-06T12:05:25.153Z,1.60
2018-08-06T12:07:53.365Z,2.33
2018-08-06T12:10:21.656Z,2.10
2018-08-06T12:12:50.333Z,1.67
2018-08-06T12:15:18.637Z,2.00
2018-08-06T12:17:46.849Z,1.90
2018-08-06T12:20:18.045Z,1.85
2018-08-06T12:22:47.413Z,1.77
2018-08-06T12:25:16.425Z,1.70
2018-08-06T12:27:45.289Z,2.10
2018-08-06T12:30:19.409Z,1.85
2018-08-06T12:32:48.422Z,2.10
2018-08-06T12:35:17.237Z,2.40
2018-08-06T12:37:45.925Z,1.90
2018-08-06T12:40:16.182Z,2.12
2018-08-06T12:42:44.389Z,1.75
2018-08-06T12:45:13.846Z,1.82
2018-08-06T12:47:42.382Z,1.80
2018-08-06T12:50:11.785Z,2.27
2018-08-06T12:52:40.790Z,1.90
2018-08-06T12:55:10.498Z,2.40
2018-08-06T12:57:39.311Z,2.00
2018-08-06T13:00:13.583Z,2.10
2018-08-06T13:02:41.777Z,2.00
2018-08-06T13:05:10.434Z,2.02
2018-08-06T13:07:38.593Z,1.60
2018-08-06T13:10:07.598Z,1.75
2018-08-06T13:12:37.242Z,1.95
2018-08-06T13:15:06.067Z,2.10
2018-08-06T13:17:34.335Z,2.00
2018-08-06T13:20:03.231Z,1.80
2018-08-06T13:22:31.791Z,2.22
2018-08-06T13:25:00.130Z,2.53
2018-08-06T13:27:28.664Z,1.90
2018-08-06T13:29:56.894Z,1.82
2018-08-06T13:32:25.090Z,1.75
2018-08-06T13:34:53.686Z,1.70
2018-08-06T13:37:21.914Z,1.90
2018-08-06T13:39:50.913Z,1.95
2018-08-06T13:42:18.932Z,1.87
2018-08-06T13:44:46.915Z,1.90
2018-08-06T13:47:14.963Z,2.10
2018-08-06T13:49:42.919Z,1.87
2018-08-06T13:52:10.906Z,2.00
2018-08-06T13:54:38.899Z,1.90
2018-08-06T13:57:07.224Z,2.12
2018-08-06T13:59:35.653Z,2.10
2018-08-06T14:02:03.918Z,2.30
2018-08-06T14:04:32.123Z,2.25
2018-08-06T14:07:00.415Z,1.98
2018-08-06T14:09:28.651Z,2.05
2018-08-06T14:11:56.927Z,1.98
2018-08-06T14:14:25.188Z,3.37
2018-08-06T14:16:54.068Z,2.08
2018-08-06T14:19:22.343Z,1.87
2018-08-06T14:21:50.759Z,2.12
2018-08-06T14:24:18.983Z,1.90
2018-08-06T14:26:47.196Z,2.20
2018-08-06T14:29:15.403Z,2.02
2018-08-06T14:31:43.620Z,2.05
2018-08-06T14:34:11.851Z,2.30
2018-08-06T14:36:40.060Z,2.05
2018-08-06T14:39:11.180Z,1.97
2018-08-06T14:41:39.416Z,2.40
2018-08-06T14:44:08.540Z,1.87
2018-08-06T14:46:37.917Z,2.12
2018-08-06T14:49:06.192Z,2.10
2018-08-06T14:51:34.503Z,2.47
2018-08-06T14:54:02.762Z,1.75
2018-08-06T14:56:31.013Z,2.05
2018-08-06T14:58:59.269Z,2.20
2018-08-06T15:01:27.469Z,2.30
2018-08-06T15:03:55.428Z,2.05
2018-08-06T15:06:23.693Z,2.00
2018-08-06T15:08:51.993Z,2.05
2018-08-06T15:11:20.949Z,2.10
2018-08-06T15:13:48.873Z,2.15
2018-08-06T15:16:17.104Z,2.10
2018-08-06T15:18:45.484Z,2.17
2018-08-06T15:21:13.720Z,2.00
2018-08-06T15:23:41.998Z,2.00
2018-08-06T15:26:10.269Z,2.47
2018-08-06T15:28:38.469Z,2.10
2018-08-06T15:31:07.985Z,2.50
2018-08-06T15:33:36.228Z,2.17
2018-08-06T15:36:04.450Z,2.40
2018-08-06T15:38:32.685Z,2.70
2018-08-06T15:41:00.881Z,2.30
2018-08-06T15:43:29.172Z,2.42
2018-08-06T15:45:57.442Z,2.55
2018-08-06T15:48:25.697Z,2.05
2018-08-06T15:50:54.813Z,2.10
2018-08-06T15:53:23.034Z,2.47
2018-08-06T15:55:51.476Z,2.47
2018-08-06T15:58:19.685Z,1.92
2018-08-06T16:00:47.894Z,2.20
2018-08-06T16:03:16.085Z,2.17
2018-08-06T16:05:44.317Z,2.50
2018-08-06T16:08:12.551Z,2.30
2018-08-06T16:10:40.770Z,2.30
2018-08-06T16:13:09.041Z,2.40
2018-08-06T16:15:37.429Z,2.10
2018-08-06T16:18:06.129Z,2.12
2018-08-06T16:20:34.297Z,2.00
2018-08-06T16:23:02.515Z,2.35
2018-08-06T16:25:30.747Z,2.50
2018-08-06T16:27:58.994Z,2.05
2018-08-06T16:30:27.211Z,2.40
2018-08-06T16:32:55.566Z,2.58
2018-08-06T16:35:24.106Z,2.30
2018-08-06T16:37:53.774Z,2.58
2018-08-06T16:40:21.991Z,2.27
2018-08-06T16:42:50.654Z,2.58
2018-08-06T16:45:18.961Z,2.20
2018-08-06T16:47:47.178Z,2.67
2018-08-06T16:50:16.614Z,2.60
2018-08-06T16:52:45.180Z,2.20
2018-08-06T16:55:13.299Z,2.10
2018-08-06T16:57:41.734Z,2.20
2018-08-06T17:00:13.379Z,2.15
2018-08-06T17:02:41.679Z,2.30
2018-08-06T17:05:11.714Z,2.55
2018-08-06T17:07:40.290Z,2.55
2018-08-06T17:10:11.175Z,2.30
2018-08-06T17:12:39.522Z,2.67
2018-08-06T17:15:08.883Z,2.40
2018-08-06T17:17:37.173Z,2.50
2018-08-06T17:20:09.066Z,2.30
2018-08-06T17:22:37.315Z,3.22
2018-08-06T17:25:07.147Z,2.58
2018-08-06T17:27:35.418Z,2.70
2018-08-06T17:30:04.067Z,2.90
2018-08-06T17:32:32.315Z,2.60
2018-08-06T17:35:00.558Z,2.20
2018-08-06T17:37:28.834Z,2.55
2018-08-06T17:39:57.247Z,2.37
2018-08-06T17:42:25.467Z,2.60
2018-08-06T17:44:53.686Z,3.40
2018-08-06T17:47:22.051Z,2.77
2018-08-06T17:49:50.319Z,2.90
2018-08-06T17:52:18.539Z,2.60
2018-08-06T17:54:46.768Z,2.77
2018-08-06T17:57:15.063Z,2.80
2018-08-06T17:59:43.287Z,2.08
2018-08-06T18:02:11.532Z,2.30
2018-08-06T18:04:39.827Z,2.85
2018-08-06T18:07:08.081Z,2.47
2018-08-06T18:09:36.400Z,2.58
2018-08-06T18:12:04.339Z,2.58
2018-08-06T18:14:32.564Z,3.00
2018-08-06T18:17:00.771Z,2.95
2018-08-06T18:19:29.123Z,3.10
2018-08-06T18:21:57.328Z,3.30
2018-08-06T18:24:25.642Z,3.58
2018-08-06T18:26:53.740Z,3.50
2018-08-06T18:29:22.805Z,3.50
2018-08-06T18:31:50.777Z,3.62
2018-08-06T18:34:18.737Z,2.92
2018-08-06T18:36:46.860Z,3.12
2018-08-06T18:39:14.850Z,2.92
2018-08-06T18:41:42.866Z,2.22
2018-08-06T18:44:10.858Z,2.40
2018-08-06T18:46:38.801Z,2.35
2018-08-06T18:49:06.751Z,2.60
2018-08-06T18:51:34.816Z,2.55
2018-08-06T18:54:02.806Z,2.40
2018-08-06T18:56:30.753Z,2.50
2018-08-06T18:58:58.746Z,2.67
2018-08-06T19:01:26.744Z,2.47
2018-08-06T19:03:55.422Z,2.20
2018-08-06T19:06:23.411Z,3.30
2018-08-06T19:08:51.455Z,2.65
2018-08-06T19:11:19.410Z,2.52
2018-08-06T19:13:52.774Z,2.83
2018-08-06T19:16:20.794Z,3.02
2018-08-06T19:18:54.314Z,2.60
2018-08-06T19:21:22.280Z,2.50
2018-08-06T19:23:54.587Z,4.72
2018-08-06T19:26:22.663Z,3.08
2018-08-06T19:28:50.623Z,3.95
2018-08-06T19:31:24.126Z,3.42
2018-08-06T19:33:52.099Z,2.70
2018-08-06T19:36:20.082Z,3.12
2018-08-06T19:38:48.054Z,2.95
2018-08-06T19:41:16.011Z,3.83
2018-08-06T19:43:43.967Z,3.60
2018-08-06T19:46:13.098Z,2.57
2018-08-06T19:48:41.062Z,2.80
2018-08-06T19:51:09.047Z,2.60
2018-08-06T19:53:37.068Z,3.25
2018-08-06T19:56:10.869Z,2.95
2018-08-06T19:58:38.862Z,2.85
2018-08-06T20:01:06.826Z,3.08
2018-08-06T20:03:34.782Z,3.75
2018-08-06T20:06:02.796Z,3.10
2018-08-06T20:08:30.774Z,3.37
2018-08-06T20:10:58.742Z,3.00
2018-08-06T20:13:26.733Z,3.05
2018-08-06T20:15:54.718Z,2.70
2018-08-06T20:18:22.702Z,2.92
2018-08-06T20:20:50.702Z,2.77
2018-08-06T20:23:18.661Z,3.30
2018-08-06T20:25:46.822Z,3.67
2018-08-06T20:28:14.786Z,4.10
2018-08-06T20:30:42.757Z,4.83
2018-08-06T20:33:10.714Z,3.27
2018-08-06T20:35:38.686Z,3.42
2018-08-06T20:38:06.729Z,2.67
2018-08-06T20:40:34.690Z,2.90
2018-08-06T20:43:02.674Z,3.33
2018-08-06T20:45:30.644Z,3.30
2018-08-06T20:47:58.710Z,3.40
2018-08-06T20:50:26.684Z,3.47
2018-08-06T20:52:54.938Z,3.70
2018-08-06T20:55:22.943Z,3.00
2018-08-06T20:57:50.938Z,3.00
2018-08-06T21:00:20.934Z,2.70
2018-08-06T21:02:49.681Z,4.45
2018-08-06T21:05:17.677Z,3.20
2018-08-06T21:07:45.631Z,2.77
2018-08-06T21:10:14.592Z,2.60
2018-08-06T21:12:42.562Z,4.50
2018-08-06T21:15:11.802Z,3.70
2018-08-06T21:17:39.838Z,3.00
2018-08-06T21:20:11.490Z,5.17
2018-08-06T21:22:39.719Z,3.92
2018-08-06T21:25:08.631Z,3.70
2018-08-06T21:27:36.739Z,3.25
2018-08-06T21:30:06.159Z,3.00
2018-08-06T21:32:34.143Z,2.50
2018-08-06T21:35:02.202Z,2.37
2018-08-06T21:37:30.179Z,2.80
2018-08-06T21:39:58.143Z,2.80
2018-08-06T21:42:26.283Z,2.50
2018-08-06T21:44:54.295Z,2.23
2018-08-06T21:47:22.219Z,2.40
2018-08-06T21:49:50.208Z,2.60
2018-08-06T21:52:18.192Z,2.67
2018-08-06T21:54:46.148Z,2.70
2018-08-06T21:57:14.127Z,2.53
2018-08-06T21:59:42.067Z,3.10
2018-08-06T22:02:10.016Z,2.90
2018-08-06T22:04:37.980Z,3.07
2018-08-06T22:07:06.128Z,2.40
2018-08-06T22:09:34.100Z,2.30
2018-08-06T22:12:02.080Z,2.40
2018-08-06T22:14:30.045Z,2.47
2018-08-06T22:16:58.000Z,2.80
2018-08-06T22:19:25.973Z,3.23
2018-08-06T22:21:53.953Z,2.47
2018-08-06T22:24:21.921Z,2.43
2018-08-06T22:26:49.889Z,2.60
2018-08-06T22:29:17.888Z,2.60
2018-08-06T22:31:45.857Z,2.50
2018-08-06T22:34:13.829Z,2.43
2018-08-06T22:36:41.873Z,2.43
2018-08-06T22:39:11.484Z,2.23
2018-08-06T22:41:39.468Z,2.20
2018-08-06T22:44:07.529Z,2.10
2018-08-06T22:46:35.597Z,2.80
2018-08-06T22:49:03.593Z,2.80
2018-08-06T22:51:31.565Z,2.50
2018-08-06T22:53:59.573Z,2.47
2018-08-06T22:56:27.563Z,2.70
2018-08-06T22:58:55.552Z,2.53
2018-08-06T23:01:23.537Z,2.43
2018-08-06T23:03:51.523Z,2.67
2018-08-06T23:06:19.546Z,2.97
2018-08-06T23:08:47.580Z,2.83
2018-08-06T23:11:15.489Z,2.90
2018-08-06T23:13:43.497Z,2.57
2018-08-06T23:16:11.489Z,2.77
2018-08-06T23:18:39.478Z,2.90
2018-08-06T23:21:07.479Z,3.43
2018-08-06T23:23:35.437Z,3.30
2018-08-06T23:26:03.429Z,3.13
2018-08-06T23:28:31.418Z,3.17
2018-08-06T23:30:59.362Z,3.20
2018-08-06T23:33:27.346Z,2.97
2018-08-06T23:35:55.318Z,2.80
2018-08-06T23:38:23.318Z,2.80
2018-08-06T23:40:51.298Z,2.97
2018-08-06T23:43:19.357Z,2.90
2018-08-06T23:45:47.365Z,3.10
2018-08-06T23:48:15.350Z,3.30
2018-08-06T23:50:43.321Z,3.23
2018-08-06T23:53:11.365Z,3.13
2018-08-06T23:55:39.299Z,2.60
2018-08-06T23:58:07.257Z,2.97
